Time;durP1;ratioP1;P1;durP2;ratioP2;P2;SDS_P1;SDS_P2;PMS_P1;PMS_P2;Temp;Humidity;BMP_temperature;BMP_pressure;BME280_temperature;BME280_humidity;BME280_pressure;Samples;Min_cycle;Max_cycle;Signal;HPM_P1;HPM_P2
2022/03/16 00:02:21;;;;;;;27.63;9.57;;;11.90;99.90;;;;;;5096181;28;20031;-78
2022/03/16 00:04:49;;;;;;;21.88;9.18;;;11.90;99.90;;;;;;5096851;28;20454;-78
2022/03/16 00:07:18;;;;;;;30.60;9.25;;;11.90;99.90;;;;;;5097332;28;20103;-78
2022/03/16 00:09:45;;;;;;;35.25;10.35;;;11.90;99.90;;;;;;5096184;28;20365;-79
2022/03/16 00:12:11;;;;;;;28.80;11.63;;;11.90;99.90;;;;;;5095397;28;20484;-79
2022/03/16 00:14:37;;;;;;;33.03;11.13;;;11.90;99.90;;;;;;5096119;28;20109;-79
2022/03/16 00:17:04;;;;;;;32.75;11.02;;;11.90;99.90;;;;;;5095889;28;20028;-79
2022/03/16 00:19:31;;;;;;;26.23;11.13;;;11.90;99.90;;;;;;5091983;28;20028;-78
2022/03/16 00:21:58;;;;;;;32.30;10.45;;;11.80;99.90;;;;;;5097268;28;20024;-79
2022/03/16 00:24:24;;;;;;;31.38;12.20;;;11.80;99.90;;;;;;5097243;28;20056;-78
2022/03/16 00:26:50;;;;;;;32.13;11.07;;;11.80;99.90;;;;;;5097014;28;20061;-79
2022/03/16 00:29:16;;;;;;;22.88;10.18;;;11.90;99.90;;;;;;5097306;28;20020;-79
2022/03/16 00:31:42;;;;;;;25.30;11.32;;;11.80;99.90;;;;;;5095751;28;20548;-78
2022/03/16 00:34:08;;;;;;;34.75;11.95;;;11.80;99.90;;;;;;5096665;28;20041;-77
2022/03/16 00:36:36;;;;;;;30.90;11.18;;;11.80;99.90;;;;;;5095619;28;20033;-78
2022/03/16 00:39:04;;;;;;;37.85;12.18;;;11.80;99.90;;;;;;5095586;28;20077;-79
2022/03/16 00:41:31;;;;;;;32.15;10.15;;;11.80;99.90;;;;;;5096785;28;20035;-78
2022/03/16 00:43:57;;;;;;;41.13;11.00;;;11.80;99.90;;;;;;5097165;28;20076;-79
2022/03/16 00:46:22;;;;;;;30.00;11.93;;;11.80;99.90;;;;;;5095401;28;20060;-78
2022/03/16 00:48:48;;;;;;;24.92;10.07;;;11.80;99.90;;;;;;5095435;28;20020;-78
2022/03/16 00:51:14;;;;;;;36.08;11.48;;;11.80;99.90;;;;;;5096768;28;20103;-78
2022/03/16 00:53:41;;;;;;;28.73;11.40;;;11.70;99.90;;;;;;5097051;28;20020;-77
2022/03/16 00:56:08;;;;;;;28.65;10.68;;;11.70;99.90;;;;;;5095471;28;20031;-78
2022/03/16 00:58:35;;;;;;;22.83;10.55;;;11.70;99.90;;;;;;5095256;28;20035;-78
2022/03/16 01:01:01;;;;;;;28.65;10.93;;;11.70;99.90;;;;;;5096696;28;20020;-77
2022/03/16 01:03:29;;;;;;;26.48;10.48;;;11.70;99.90;;;;;;5094978;28;20055;-79
2022/03/16 01:05:55;;;;;;;29.08;10.13;;;11.70;99.90;;;;;;5095461;28;20042;-78
2022/03/16 01:08:21;;;;;;;38.85;12.50;;;11.70;99.90;;;;;;5096926;28;20024;-78
2022/03/16 01:10:46;;;;;;;27.58;10.93;;;11.80;99.90;;;;;;5093945;28;20023;-78
2022/03/16 01:13:12;;;;;;;28.20;11.90;;;11.70;99.90;;;;;;5096997;28;20031;-79
2022/03/16 01:15:38;;;;;;;32.67;9.85;;;11.70;99.90;;;;;;5096618;28;20055;-78
2022/03/16 01:18:04;;;;;;;29.33;10.13;;;11.70;99.90;;;;;;5096591;28;20035;-79
2022/03/16 01:20:30;;;;;;;27.85;10.77;;;11.70;99.90;;;;;;5095293;28;20395;-79
2022/03/16 01:22:56;;;;;;;29.67;10.95;;;11.80;99.90;;;;;;5097337;28;20032;-78
2022/03/16 01:25:22;;;;;;;30.33;12.77;;;11.70;99.90;;;;;;5100113;28;20026;-79
2022/03/16 01:27:48;;;;;;;32.65;10.20;;;11.70;99.90;;;;;;5098687;28;20476;-78
2022/03/16 01:30:13;;;;;;;42.33;12.30;;;11.70;99.90;;;;;;5100009;28;20095;-79
2022/03/16 01:32:40;;;;;;;37.80;10.98;;;11.70;99.90;;;;;;5098736;28;20036;-79
2022/03/16 01:35:07;;;;;;;22.88;11.52;;;11.80;99.90;;;;;;5098387;28;20024;-79
2022/03/16 01:37:33;;;;;;;45.67;12.32;;;11.80;99.90;;;;;;5099115;28;20035;-78
2022/03/16 01:39:59;;;;;;;36.70;12.43;;;11.80;99.90;;;;;;5098742;28;20128;-79
2022/03/16 01:42:25;;;;;;;39.60;12.27;;;11.80;99.90;;;;;;5098712;28;20020;-79
2022/03/16 01:44:57;;;;;;;27.48;10.23;;;11.80;99.90;;;;;;5098431;28;20031;-79
2022/03/16 01:47:25;;;;;;;30.00;11.40;;;11.70;99.90;;;;;;5098664;28;20036;-79
2022/03/16 01:49:54;;;;;;;23.85;9.68;;;11.80;99.90;;;;;;5098168;28;20075;-78
2022/03/16 01:52:25;;;;;;;27.42;10.73;;;11.80;99.90;;;;;;5097819;28;20121;-79
2022/03/16 01:54:51;;;;;;;36.08;11.63;;;11.80;99.90;;;;;;5099913;28;20020;-80
2022/03/16 01:57:17;;;;;;;30.95;13.25;;;11.80;99.90;;;;;;5099495;28;20063;-79
2022/03/16 01:59:44;;;;;;;28.05;11.10;;;11.80;99.90;;;;;;5098223;28;20045;-79
2022/03/16 02:02:10;;;;;;;32.60;11.05;;;11.70;99.90;;;;;;5099666;28;20045;-80
2022/03/16 02:04:37;;;;;;;35.33;10.38;;;11.70;99.90;;;;;;5098180;28;20032;-79
2022/03/16 02:07:03;;;;;;;23.00;9.52;;;11.80;99.90;;;;;;5099529;28;20034;-79
2022/03/16 02:09:29;;;;;;;27.73;11.35;;;11.70;99.90;;;;;;5099182;28;20103;-78
2022/03/16 02:11:55;;;;;;;34.63;11.45;;;11.70;99.90;;;;;;5099366;28;20032;-79
2022/03/16 02:14:22;;;;;;;34.88;11.82;;;11.70;99.90;;;;;;5099183;28;20035;-79
2022/03/16 02:16:51;;;;;;;37.45;11.40;;;11.70;99.90;;;;;;5098277;28;20020;-79
2022/03/16 02:19:17;;;;;;;28.17;10.85;;;11.70;99.90;;;;;;5097503;28;20038;-79
2022/03/16 02:21:45;;;;;;;29.27;11.57;;;11.70;99.90;;;;;;5099068;28;20020;-80
2022/03/16 02:24:12;;;;;;;33.05;11.82;;;11.70;99.90;;;;;;5099110;28;20020;-78
2022/03/16 02:26:39;;;;;;;34.70;12.45;;;11.80;99.90;;;;;;5099017;28;20031;-79
2022/03/16 02:29:05;;;;;;;22.85;10.30;;;11.70;99.90;;;;;;5099217;28;20016;-79
2022/03/16 02:31:31;;;;;;;31.40;11.20;;;11.80;99.90;;;;;;5097686;28;20078;-78
2022/03/16 02:33:57;;;;;;;31.65;11.73;;;11.70;99.90;;;;;;5097052;28;20858;-78
2022/03/16 02:36:24;;;;;;;31.02;11.70;;;11.70;99.90;;;;;;5098244;28;20038;-79
2022/03/16 02:38:49;;;;;;;39.60;12.48;;;11.70;99.90;;;;;;5098686;28;20027;-78
2022/03/16 02:41:16;;;;;;;23.20;9.82;;;11.70;99.90;;;;;;5097761;28;20101;-79
2022/03/16 02:43:41;;;;;;;26.13;10.48;;;11.70;99.90;;;;;;5097261;28;20492;-79
2022/03/16 02:46:09;;;;;;;26.38;11.38;;;11.70;99.90;;;;;;5098713;28;20047;-79
2022/03/16 02:48:35;;;;;;;30.80;11.70;;;11.70;99.90;;;;;;5096942;28;20016;-79
2022/03/16 02:51:01;;;;;;;26.10;11.13;;;11.70;99.90;;;;;;5090189;28;20031;-80
2022/03/16 02:53:26;;;;;;;31.88;10.27;;;11.70;99.90;;;;;;5095884;28;20020;-80
2022/03/16 02:55:52;;;;;;;34.30;11.07;;;11.70;99.90;;;;;;5098645;28;20020;-78
2022/03/16 02:58:18;;;;;;;35.50;12.50;;;11.60;99.90;;;;;;5098337;28;20016;-79
2022/03/16 03:00:44;;;;;;;25.42;10.90;;;11.60;99.90;;;;;;5097133;28;20024;-78
2022/03/16 03:03:10;;;;;;;25.77;10.20;;;11.60;99.90;;;;;;5098121;28;20024;-79
2022/03/16 03:05:36;;;;;;;29.70;10.23;;;11.70;99.90;;;;;;5098487;28;20024;-79
2022/03/16 03:08:02;;;;;;;32.55;11.65;;;11.60;99.90;;;;;;5096797;28;20073;-79
2022/03/16 03:10:28;;;;;;;26.80;11.05;;;11.60;99.90;;;;;;5098701;28;20479;-79
2022/03/16 03:12:54;;;;;;;30.90;11.35;;;11.70;99.90;;;;;;5096705;28;20024;-80
2022/03/16 03:15:20;;;;;;;24.63;9.52;;;11.70;99.90;;;;;;5096894;28;20024;-78
2022/03/16 03:17:46;;;;;;;30.98;11.38;;;11.70;99.90;;;;;;5097986;28;20064;-79
2022/03/16 03:20:13;;;;;;;28.05;11.60;;;11.70;99.90;;;;;;5097835;28;20028;-80
2022/03/16 03:22:40;;;;;;;20.67;10.57;;;11.70;99.90;;;;;;5097962;28;20440;-79
2022/03/16 03:25:10;;;;;;;26.83;10.63;;;11.60;99.90;;;;;;5096963;28;20051;-79
2022/03/16 03:27:36;;;;;;;26.88;9.77;;;11.60;99.90;;;;;;5087714;28;20020;-79
2022/03/16 03:30:03;;;;;;;34.33;11.73;;;11.60;99.90;;;;;;5098286;28;20039;-79
2022/03/16 03:32:29;;;;;;;25.08;9.65;;;11.60;99.90;;;;;;5097980;28;20071;-79
2022/03/16 03:34:55;;;;;;;24.73;10.07;;;11.60;99.90;;;;;;5096115;28;20481;-78
2022/03/16 03:37:22;;;;;;;32.13;11.50;;;11.60;99.90;;;;;;5096551;28;20028;-79
2022/03/16 03:39:48;;;;;;;23.30;11.68;;;11.60;99.90;;;;;;5096405;28;20052;-78
2022/03/16 03:42:14;;;;;;;22.42;9.75;;;11.50;99.90;;;;;;5096467;28;20122;-79
2022/03/16 03:44:40;;;;;;;28.58;11.50;;;11.50;99.90;;;;;;5096268;28;20035;-79
2022/03/16 03:47:08;;;;;;;19.30;9.88;;;11.60;99.90;;;;;;5095668;28;20024;-79
2022/03/16 03:49:35;;;;;;;35.63;11.65;;;11.60;99.90;;;;;;5097241;28;20104;-79
2022/03/16 03:52:02;;;;;;;30.63;10.48;;;11.60;99.90;;;;;;5096308;28;20031;-78
2022/03/16 03:54:28;;;;;;;29.60;11.25;;;11.60;99.90;;;;;;5096487;28;20028;-78
2022/03/16 03:56:54;;;;;;;22.85;9.63;;;11.60;99.90;;;;;;5096143;28;20043;-78
2022/03/16 03:59:21;;;;;;;32.92;11.93;;;11.60;99.90;;;;;;5097418;28;20028;-79
2022/03/16 04:01:47;;;;;;;26.02;10.25;;;11.60;99.90;;;;;;5096136;28;20506;-79
2022/03/16 04:04:13;;;;;;;32.72;11.38;;;11.60;99.90;;;;;;5095728;28;20034;-79
2022/03/16 04:06:39;;;;;;;33.70;10.27;;;11.60;99.90;;;;;;5096281;28;20119;-79
2022/03/16 04:09:05;;;;;;;29.48;11.15;;;11.50;99.90;;;;;;5097462;28;20089;-79
2022/03/16 04:11:32;;;;;;;38.20;12.20;;;11.50;99.90;;;;;;5096121;28;20096;-79
2022/03/16 04:13:58;;;;;;;23.13;10.50;;;11.40;99.90;;;;;;5097622;28;20027;-80
2022/03/16 04:16:24;;;;;;;27.15;11.95;;;11.50;99.90;;;;;;5097676;28;20024;-79
2022/03/16 04:18:50;;;;;;;30.88;10.57;;;11.50;99.90;;;;;;5094851;28;20028;-79
2022/03/16 04:21:15;;;;;;;20.05;10.05;;;11.50;99.90;;;;;;5097680;28;20023;-79
2022/03/16 04:23:41;;;;;;;30.38;12.00;;;11.50;99.90;;;;;;5096226;28;20081;-79
2022/03/16 04:26:07;;;;;;;36.05;12.80;;;11.40;99.90;;;;;;5097549;28;20028;-80
2022/03/16 04:28:33;;;;;;;30.60;12.10;;;11.50;99.90;;;;;;5095764;28;20028;-80
2022/03/16 04:31:02;;;;;;;32.42;12.88;;;11.50;99.90;;;;;;5096017;28;20103;-80
2022/03/16 04:33:29;;;;;;;31.08;11.38;;;11.40;99.90;;;;;;5096736;28;20075;-80
2022/03/16 04:35:55;;;;;;;26.55;11.13;;;11.40;99.90;;;;;;5096004;28;20625;-80
2022/03/16 04:38:21;;;;;;;27.13;10.52;;;11.40;99.90;;;;;;5095812;28;20027;-79
2022/03/16 04:40:47;;;;;;;34.47;11.70;;;11.40;99.90;;;;;;5095671;28;20040;-79
2022/03/16 04:43:13;;;;;;;28.33;11.07;;;11.50;99.90;;;;;;5096860;28;20055;-78
2022/03/16 04:45:39;;;;;;;32.55;13.82;;;11.50;99.90;;;;;;5097167;28;20215;-79
2022/03/16 04:48:09;;;;;;;43.03;11.70;;;11.50;99.90;;;;;;5095553;28;20040;-79
2022/03/16 04:50:36;;;;;;;29.47;11.33;;;11.50;99.90;;;;;;5096059;28;20115;-80
2022/03/16 04:53:02;;;;;;;29.70;12.20;;;11.40;99.90;;;;;;5095932;28;20262;-80
2022/03/16 04:55:29;;;;;;;27.83;11.88;;;11.50;99.90;;;;;;5096957;28;20021;-80
2022/03/16 04:57:55;;;;;;;27.80;12.05;;;11.40;99.90;;;;;;5096019;28;20158;-79
2022/03/16 05:00:21;;;;;;;29.67;11.13;;;11.40;99.90;;;;;;5100874;28;20032;-79
2022/03/16 05:02:47;;;;;;;32.25;12.32;;;11.40;99.90;;;;;;5099259;28;20024;-80
2022/03/16 05:05:13;;;;;;;30.25;12.13;;;11.40;99.90;;;;;;5099338;28;20030;-79
2022/03/16 05:07:42;;;;;;;18.65;9.63;;;11.40;99.90;;;;;;5100564;28;20034;-79
2022/03/16 05:10:12;;;;;;;32.53;10.70;;;11.40;99.90;;;;;;5099442;28;20114;-79
2022/03/16 05:12:39;;;;;;;32.88;10.68;;;11.40;99.90;;;;;;5100615;28;20502;-79
2022/03/16 05:15:07;;;;;;;30.27;10.98;;;11.50;99.90;;;;;;5100830;28;20024;-80
2022/03/16 05:17:34;;;;;;;26.58;11.02;;;11.40;99.90;;;;;;5099118;28;20119;-80
2022/03/16 05:20:00;;;;;;;33.90;12.13;;;11.40;99.90;;;;;;5099019;28;20103;-79
2022/03/16 05:22:26;;;;;;;26.92;11.50;;;11.40;99.90;;;;;;5098489;28;20140;-79
2022/03/16 05:24:52;;;;;;;30.70;10.77;;;11.40;99.90;;;;;;5100432;28;20106;-79
2022/03/16 05:27:20;;;;;;;29.50;12.00;;;11.50;99.90;;;;;;5099049;28;20028;-79
2022/03/16 05:29:47;;;;;;;22.02;10.73;;;11.50;99.90;;;;;;5098920;28;20024;-79
2022/03/16 05:32:14;;;;;;;26.08;11.48;;;11.50;99.90;;;;;;5097848;28;20107;-79
2022/03/16 05:34:40;;;;;;;24.67;11.70;;;11.50;99.90;;;;;;5099757;28;20028;-80
2022/03/16 05:37:06;;;;;;;25.58;11.77;;;11.60;99.90;;;;;;5099947;28;20119;-80
2022/03/16 05:39:32;;;;;;;19.00;10.48;;;11.50;99.90;;;;;;5099962;28;20052;-80
2022/03/16 05:42:00;;;;;;;28.27;10.40;;;11.60;99.90;;;;;;5099818;28;20028;-79
2022/03/16 05:44:26;;;;;;;40.25;11.95;;;11.60;99.90;;;;;;5100201;28;20091;-79
2022/03/16 05:46:54;;;;;;;25.98;10.77;;;11.60;99.90;;;;;;5098347;28;20393;-80
2022/03/16 05:49:22;;;;;;;22.13;10.13;;;11.60;99.90;;;;;;5099795;28;20024;-79
2022/03/16 05:51:48;;;;;;;25.88;11.50;;;11.60;99.90;;;;;;5099656;28;20016;-80
2022/03/16 05:54:14;;;;;;;29.55;12.15;;;11.60;99.90;;;;;;5098493;28;20024;-79
2022/03/16 05:56:40;;;;;;;28.42;11.23;;;11.60;99.90;;;;;;5098597;28;20036;-79
2022/03/16 05:59:06;;;;;;;20.17;10.82;;;11.60;99.90;;;;;;5098315;28;20031;-80
2022/03/16 06:01:32;;;;;;;30.92;11.63;;;11.60;99.90;;;;;;5098256;28;20110;-78
2022/03/16 06:03:58;;;;;;;34.17;9.85;;;11.60;99.90;;;;;;5098195;28;20085;-79
2022/03/16 06:06:26;;;;;;;37.90;11.32;;;11.60;99.90;;;;;;5098045;28;20028;-80
2022/03/16 06:08:52;;;;;;;35.33;11.75;;;11.60;99.90;;;;;;5099729;28;20023;-80
2022/03/16 06:11:18;;;;;;;26.65;11.05;;;11.70;99.90;;;;;;5097178;28;20020;-79
2022/03/16 06:13:44;;;;;;;23.98;10.18;;;11.70;99.90;;;;;;5099361;28;20020;-79
2022/03/16 06:16:10;;;;;;;26.08;11.25;;;11.70;99.90;;;;;;5099225;28;20035;-80
2022/03/16 06:18:35;;;;;;;29.90;10.80;;;11.70;99.90;;;;;;5099001;28;20016;-79
2022/03/16 06:21:01;;;;;;;33.45;12.20;;;11.70;99.90;;;;;;5098043;28;20020;-80
2022/03/16 06:23:27;;;;;;;25.63;11.98;;;11.80;99.90;;;;;;5099199;28;20065;-80
2022/03/16 06:25:53;;;;;;;38.40;13.02;;;11.80;99.90;;;;;;5097613;28;20028;-79
2022/03/16 06:28:19;;;;;;;23.98;10.35;;;11.80;99.90;;;;;;5099030;28;20020;-79
2022/03/16 06:30:45;;;;;;;29.83;11.93;;;11.90;99.90;;;;;;5097748;28;20020;-79
2022/03/16 06:33:11;;;;;;;28.45;9.82;;;11.90;99.90;;;;;;5097464;28;20506;-79
2022/03/16 06:35:37;;;;;;;23.23;11.05;;;11.90;99.90;;;;;;5098861;28;20020;-79
2022/03/16 06:38:03;;;;;;;29.92;11.95;;;12.00;99.90;;;;;;5098876;28;20031;-80
2022/03/16 06:40:29;;;;;;;20.15;9.30;;;12.00;99.90;;;;;;5098801;28;20051;-79
2022/03/16 06:42:57;;;;;;;29.75;11.63;;;12.00;99.90;;;;;;5094677;28;20142;-79
2022/03/16 06:45:26;;;;;;;32.30;10.75;;;12.00;99.90;;;;;;5097277;28;20032;-79
2022/03/16 06:47:55;;;;;;;29.73;12.10;;;12.00;99.90;;;;;;5097150;28;20039;-80
2022/03/16 06:50:20;;;;;;;34.17;10.73;;;12.00;99.90;;;;;;5098853;28;20042;-79
2022/03/16 06:52:47;;;;;;;36.97;11.73;;;12.10;99.90;;;;;;5097220;28;20488;-79
2022/03/16 06:55:13;;;;;;;29.77;11.60;;;12.10;99.90;;;;;;5097517;28;20043;-79
2022/03/16 06:57:39;;;;;;;23.17;9.80;;;12.10;99.90;;;;;;5097068;28;20020;-79
2022/03/16 07:00:08;;;;;;;29.50;12.30;;;12.10;99.90;;;;;;5098593;28;20024;-79
2022/03/16 07:03:03;;;;;;;30.15;9.93;;;12.10;99.90;;;;;;5097083;28;20020;-80
2022/03/16 07:05:32;;;;;;;31.05;10.63;;;12.20;99.90;;;;;;5097093;28;20028;-81
2022/03/16 07:07:59;;;;;;;28.55;11.23;;;12.20;99.90;;;;;;5096946;28;20035;-80
2022/03/16 07:10:26;;;;;;;33.20;10.80;;;12.20;99.90;;;;;;5097320;28;20023;-79
2022/03/16 07:12:52;;;;;;;30.95;13.20;;;12.20;99.90;;;;;;5098180;28;20017;-79
2022/03/16 07:15:19;;;;;;;32.20;11.95;;;12.20;99.90;;;;;;5096958;28;20495;-78
2022/03/16 07:17:45;;;;;;;19.02;9.80;;;12.30;99.90;;;;;;5097800;28;20020;-79
2022/03/16 07:20:11;;;;;;;23.90;10.45;;;12.30;99.90;;;;;;5097959;28;20028;-79
2022/03/16 07:22:37;;;;;;;35.58;11.02;;;12.30;99.90;;;;;;5097080;28;20024;-79
2022/03/16 07:25:05;;;;;;;33.95;11.85;;;12.30;99.90;;;;;;5096879;28;20031;-79
2022/03/16 07:27:30;;;;;;;31.30;10.77;;;12.30;99.90;;;;;;5097930;28;20024;-80
2022/03/16 07:29:56;;;;;;;42.95;12.25;;;12.30;99.90;;;;;;5096482;28;20034;-79
2022/03/16 07:32:25;;;;;;;23.02;10.07;;;12.40;99.90;;;;;;5089816;28;20027;-79
2022/03/16 07:34:51;;;;;;;30.67;12.38;;;12.40;99.90;;;;;;5096549;28;20080;-78
2022/03/16 07:37:17;;;;;;;31.08;10.63;;;12.50;99.90;;;;;;5098102;28;20095;-77
2022/03/16 07:39:43;;;;;;;35.33;10.30;;;12.50;99.90;;;;;;5092828;28;20419;-78
2022/03/16 07:42:09;;;;;;;31.98;10.15;;;12.50;99.90;;;;;;5097591;28;20055;-78
2022/03/16 07:44:35;;;;;;;24.38;10.70;;;12.50;99.90;;;;;;5097833;28;20039;-77
2022/03/16 07:47:02;;;;;;;33.47;11.15;;;12.50;99.90;;;;;;5097517;28;20063;-77
2022/03/16 07:49:29;;;;;;;30.40;9.77;;;12.60;99.90;;;;;;5097328;28;20020;-77
2022/03/16 07:51:55;;;;;;;28.13;9.68;;;12.50;99.90;;;;;;5096666;28;20393;-77
2022/03/16 07:54:22;;;;;;;22.77;9.77;;;12.60;99.90;;;;;;5085312;28;20053;-78
2022/03/16 07:56:47;;;;;;;18.17;8.75;;;12.60;99.90;;;;;;5095131;28;20020;-78
2022/03/16 07:59:14;;;;;;;23.58;9.93;;;12.60;99.90;;;;;;5096690;28;20066;-78
2022/03/16 08:01:41;;;;;;;21.25;10.10;;;12.60;99.90;;;;;;5095871;28;20028;-78
2022/03/16 08:04:07;;;;;;;34.05;10.60;;;12.70;99.90;;;;;;5083185;28;20477;-77
2022/03/16 08:06:34;;;;;;;31.20;10.60;;;12.70;99.90;;;;;;5076638;28;20582;-78
2022/03/16 08:08:59;;;;;;;27.17;9.30;;;12.70;99.90;;;;;;5076003;28;20048;-78
2022/03/16 08:11:25;;;;;;;24.70;10.35;;;12.70;99.90;;;;;;5093595;28;20015;-78
2022/03/16 08:13:51;;;;;;;23.88;9.27;;;12.70;99.90;;;;;;5096600;28;20046;-78
2022/03/16 08:16:17;;;;;;;22.65;10.57;;;12.70;99.90;;;;;;5095047;28;20484;-78
2022/03/16 08:18:43;;;;;;;29.73;11.10;;;12.70;99.90;;;;;;5094759;28;20028;-78
2022/03/16 08:21:11;;;;;;;23.60;9.82;;;12.70;99.90;;;;;;5090692;28;20100;-78
2022/03/16 08:23:38;;;;;;;26.63;9.27;;;12.80;99.90;;;;;;5076474;28;20035;-78
2022/03/16 08:26:04;;;;;;;23.67;9.60;;;12.80;99.90;;;;;;5091219;28;20537;-78
2022/03/16 08:28:30;;;;;;;21.63;9.70;;;12.80;99.90;;;;;;5110519;28;20028;-78
2022/03/16 08:30:55;;;;;;;26.10;9.40;;;12.90;99.90;;;;;;5125661;28;20028;-78
2022/03/16 08:33:23;;;;;;;24.60;10.40;;;12.90;99.90;;;;;;5094777;28;20016;-78
2022/03/16 08:35:50;;;;;;;32.92;11.50;;;12.90;99.90;;;;;;5099433;28;20016;-77
2022/03/16 08:38:17;;;;;;;37.33;10.10;;;12.90;99.90;;;;;;5100017;28;20028;-76
2022/03/16 08:40:43;;;;;;;30.58;10.50;;;12.90;99.90;;;;;;5097589;28;20496;-78
2022/03/16 08:43:09;;;;;;;32.55;9.35;;;12.90;99.90;;;;;;5100115;28;20024;-78
2022/03/16 08:45:36;;;;;;;25.70;9.68;;;13.00;99.90;;;;;;5098365;28;20028;-77
2022/03/16 08:48:02;;;;;;;33.05;9.60;;;13.00;99.90;;;;;;5100466;28;20100;-78
2022/03/16 08:50:31;;;;;;;22.48;9.45;;;13.00;99.90;;;;;;5098905;28;20039;-79
2022/03/16 08:52:57;;;;;;;23.35;9.13;;;13.10;99.90;;;;;;5100485;28;20054;-78
2022/03/16 08:55:23;;;;;;;22.60;9.85;;;13.10;99.90;;;;;;5100507;28;20031;-78
2022/03/16 08:57:49;;;;;;;30.42;11.07;;;13.20;99.90;;;;;;5100263;28;20035;-78
2022/03/16 09:00:18;;;;;;;28.05;9.63;;;13.20;99.90;;;;;;5100317;28;20098;-79
2022/03/16 09:02:44;;;;;;;33.53;9.23;;;13.30;99.90;;;;;;5098690;28;20028;-78
2022/03/16 09:05:12;;;;;;;28.60;9.52;;;13.30;99.90;;;;;;5100568;28;20172;-78
2022/03/16 09:07:40;;;;;;;22.45;8.65;;;13.30;99.90;;;;;;5100078;28;20020;-78
2022/03/16 09:10:07;;;;;;;17.25;8.05;;;13.50;99.90;;;;;;5095903;28;20020;-79
2022/03/16 09:12:33;;;;;;;28.08;7.53;;;13.50;99.90;;;;;;5095656;28;20110;-79
2022/03/16 09:14:58;;;;;;;26.30;9.45;;;13.60;99.90;;;;;;5100263;28;20051;-78
2022/03/16 09:17:24;;;;;;;20.40;8.70;;;13.60;99.90;;;;;;5098625;28;20073;-78
2022/03/16 09:19:52;;;;;;;27.15;8.50;;;13.70;99.90;;;;;;5099555;28;20738;-79
2022/03/16 09:22:18;;;;;;;26.05;9.93;;;13.80;99.90;;;;;;5099916;28;20024;-78
2022/03/16 09:24:44;;;;;;;19.73;8.18;;;13.90;99.90;;;;;;5098953;28;20078;-79
2022/03/16 09:27:10;;;;;;;20.75;8.07;;;13.90;99.90;;;;;;5098602;28;20032;-78
2022/03/16 09:29:36;;;;;;;23.80;8.95;;;14.00;99.90;;;;;;5099748;28;20439;-78
2022/03/16 09:32:02;;;;;;;21.73;6.72;;;14.10;99.90;;;;;;5096271;28;20031;-78
2022/03/16 09:34:28;;;;;;;19.63;7.93;;;14.20;99.90;;;;;;5099557;28;20012;-78
2022/03/16 09:36:54;;;;;;;22.90;8.95;;;14.30;99.90;;;;;;5099593;28;20034;-78
2022/03/16 09:39:20;;;;;;;13.98;6.72;;;14.50;99.90;;;;;;5099823;28;20044;-79
2022/03/16 09:41:46;;;;;;;28.30;9.02;;;14.50;99.90;;;;;;5098378;28;20071;-78
2022/03/16 09:44:12;;;;;;;17.77;7.57;;;14.60;99.90;;;;;;5099588;28;20058;-78
2022/03/16 09:46:39;;;;;;;18.63;6.15;;;14.60;99.90;;;;;;5098756;28;20119;-78
2022/03/16 09:49:07;;;;;;;24.85;7.20;;;14.60;99.90;;;;;;5099373;28;20016;-78
2022/03/16 09:51:38;;;;;;;25.25;8.75;;;14.60;99.90;;;;;;5099725;28;20035;-78
2022/03/16 09:54:05;;;;;;;18.83;7.65;;;14.70;99.90;;;;;;5097926;28;20024;-78
2022/03/16 09:56:33;;;;;;;20.90;7.82;;;14.70;99.90;;;;;;5099409;28;20024;-78
2022/03/16 09:59:00;;;;;;;21.42;7.90;;;14.70;99.90;;;;;;5099285;28;20028;-79
2022/03/16 10:01:26;;;;;;;21.73;6.32;;;14.50;99.90;;;;;;5098181;28;20472;-78
2022/03/16 10:03:54;;;;;;;16.52;7.47;;;14.50;99.90;;;;;;5098748;28;20031;-78
2022/03/16 10:06:24;;;;;;;14.77;7.28;;;14.50;99.90;;;;;;5098935;28;20107;-77
2022/03/16 10:14:18;;;;;;;13.95;6.32;;;14.70;99.90;;;;;;5099131;28;20035;-77
2022/03/16 10:19:52;;;;;;;25.73;8.25;;;14.70;99.90;;;;;;5098717;28;20031;-77
2022/03/16 10:22:25;;;;;;;17.27;5.97;;;14.70;99.90;;;;;;5098770;28;20081;-77
2022/03/16 10:25:02;;;;;;;13.55;6.38;;;14.70;99.90;;;;;;5099120;28;20024;-77
2022/03/16 10:27:28;;;;;;;17.20;6.80;;;14.80;99.90;;;;;;5097024;28;20111;-77
2022/03/16 10:29:55;;;;;;;15.07;6.00;;;14.80;99.90;;;;;;5085891;28;20035;-76
2022/03/16 10:32:22;;;;;;;13.15;6.18;;;14.80;99.90;;;;;;5097696;28;20034;-77
2022/03/16 10:34:53;;;;;;;21.13;7.05;;;14.70;99.90;;;;;;5098392;28;20020;-76
2022/03/16 10:37:22;;;;;;;17.95;6.30;;;14.60;99.90;;;;;;5085272;28;20497;-76
2022/03/16 10:39:50;;;;;;;20.02;7.28;;;14.70;99.90;;;;;;5097063;28;20412;-77
2022/03/16 10:48:20;;;;;;;23.08;7.22;;;14.50;99.90;;;;;;5098002;28;20552;-78
2022/03/16 10:50:48;;;;;;;19.30;6.70;;;14.50;99.90;;;;;;5098722;28;20488;-77
2022/03/16 10:53:16;;;;;;;14.68;6.68;;;14.60;99.90;;;;;;5098221;28;20031;-79
2022/03/16 10:55:44;;;;;;;14.02;5.72;;;14.60;99.90;;;;;;5096586;28;20020;-76
2022/03/16 10:58:13;;;;;;;24.00;5.57;;;14.70;99.90;;;;;;5098204;28;20035;-76
2022/03/16 11:00:41;;;;;;;19.90;5.88;;;14.80;99.90;;;;;;5096455;28;20119;-76
2022/03/16 11:03:15;;;;;;;22.63;7.18;;;14.80;99.90;;;;;;5096544;28;20055;-76
2022/03/16 11:05:42;;;;;;;26.05;7.22;;;14.70;99.90;;;;;;5097876;28;20031;-78
2022/03/16 11:08:09;;;;;;;20.30;7.03;;;14.70;99.90;;;;;;5097869;28;20036;-76
2022/03/16 11:10:37;;;;;;;12.45;5.53;;;14.70;99.90;;;;;;5096445;28;20484;-76
2022/03/16 11:15:52;;;;;;;22.98;5.95;;;14.80;99.90;;;;;;5097689;28;20065;-76
2022/03/16 11:18:18;;;;;;;18.73;7.17;;;14.80;99.90;;;;;;5096508;28;20111;-77
2022/03/16 11:20:56;;;;;;;14.75;5.63;;;14.90;99.90;;;;;;5094871;28;20063;-77
2022/03/16 11:26:53;;;;;;;15.90;5.70;;;15.10;99.90;;;;;;5095866;28;20043;-77
2022/03/16 11:29:34;;;;;;;17.35;5.85;;;15.10;99.90;;;;;;5096257;28;20043;-77
2022/03/16 11:32:13;;;;;;;17.70;7.75;;;15.10;99.90;;;;;;5095454;28;20028;-77
2022/03/16 11:34:45;;;;;;;18.40;6.25;;;15.10;99.90;;;;;;5094947;28;20045;-77
2022/03/16 11:37:12;;;;;;;10.07;5.95;;;15.10;99.90;;;;;;5095773;28;20027;-77
2022/03/16 11:39:44;;;;;;;14.50;5.78;;;15.10;99.90;;;;;;5096921;28;20067;-78
2022/03/16 11:42:15;;;;;;;15.57;6.28;;;14.90;99.90;;;;;;5096466;28;20032;-76
2022/03/16 11:44:41;;;;;;;;;;;14.80;99.90;;;;;;5095896;28;20024;-77
2022/03/16 11:47:10;;;;;;;18.40;5.78;;;14.70;99.90;;;;;;5096880;28;20373;-77
2022/03/16 11:49:45;;;;;;;15.23;6.97;;;14.60;99.90;;;;;;5086561;28;20028;-77
2022/03/16 11:52:12;;;;;;;13.15;6.10;;;14.60;99.90;;;;;;5097132;28;20028;-77
2022/03/16 11:54:44;;;;;;;19.92;6.82;;;14.60;99.90;;;;;;5097324;28;20103;-77
2022/03/16 11:57:11;;;;;;;20.38;6.57;;;14.50;99.90;;;;;;5096840;28;20028;-77
2022/03/16 11:59:44;;;;;;;19.90;7.07;;;14.50;99.90;;;;;;5095375;28;20075;-77
2022/03/16 12:02:20;;;;;;;12.98;6.07;;;14.40;99.90;;;;;;5096178;28;20048;-77
2022/03/16 12:04:48;;;;;;;18.23;6.95;;;14.50;99.90;;;;;;5095300;28;20020;-77
2022/03/16 12:07:21;;;;;;;21.88;7.25;;;14.50;99.90;;;;;;5096476;28;20028;-77
2022/03/16 12:10:00;;;;;;;24.15;6.57;;;14.50;99.90;;;;;;5095413;28;20028;-77
2022/03/16 12:15:12;;;;;;;16.58;7.20;;;14.60;99.90;;;;;;5097218;28;20069;-77
2022/03/16 12:17:58;;;;;;;26.50;8.23;;;14.60;99.90;;;;;;5096450;28;20099;-77
2022/03/16 12:20:34;;;;;;;15.52;6.55;;;14.60;99.90;;;;;;5081998;28;20098;-77
2022/03/16 12:23:10;;;;;;;13.85;6.28;;;14.60;99.90;;;;;;5095576;28;20032;-77
2022/03/16 12:25:39;;;;;;;18.08;5.72;;;14.50;99.90;;;;;;5097018;28;20020;-77
2022/03/16 12:31:04;;;;;;;16.83;6.38;;;14.50;99.90;;;;;;5083555;28;20086;-76
2022/03/16 12:33:42;;;;;;;12.15;5.47;;;14.50;99.90;;;;;;5094809;28;20544;-77
2022/03/16 12:36:17;;;;;;;19.48;7.05;;;14.40;99.90;;;;;;5096269;28;20100;-76
2022/03/16 12:38:49;;;;;;;17.85;6.72;;;14.40;99.90;;;;;;5096113;28;20099;-77
2022/03/16 12:44:06;;;;;;;13.55;6.15;;;14.30;99.90;;;;;;5094389;28;20059;-77
2022/03/16 12:47:08;;;;;;;16.67;6.10;;;14.40;99.90;;;;;;5094688;28;20039;-77
2022/03/16 12:49:42;;;;;;;18.83;6.82;;;14.40;99.90;;;;;;5095563;28;20253;-77
2022/03/16 12:52:08;;;;;;;18.13;6.60;;;14.50;99.90;;;;;;5096164;28;20107;-77
2022/03/16 12:54:36;;;;;;;12.88;5.47;;;14.50;99.90;;;;;;5095827;28;20480;-77
2022/03/16 12:57:14;;;;;;;20.25;5.95;;;14.40;99.90;;;;;;5094670;28;20028;-75
2022/03/16 12:59:53;;;;;;;13.90;6.38;;;14.30;99.90;;;;;;5095912;28;20392;-77
2022/03/16 13:02:24;;;;;;;20.13;7.15;;;14.30;99.90;;;;;;5095923;28;20419;-77